<?xml version="1.0" encoding="UTF-8" standalone="no" ?>
<gpx xmlns="http://www.topografix.com/GPX/1/1" xmlns:xsi="http://www.w3.org/2001/XMLSchema-instance" xsi:schemaLocation="http://www.topografix.com/GPX/1/1 http://www.topografix.com/GPX/1/1/gpx.xsd" version="1.1" creator="VisuGPX - https://www.visugpx.com">
  <metadata>
    <name>Marchaux 2022</name>
    <desc><![CDATA[Sortie ASCEV jeudi matin ]]></desc>
  </metadata>
  <trk>
    <name><![CDATA[Marchaux]]></name>
    <trkseg>
      <trkpt lat="47.32277" lon="6.13363">
        <ele>289.46417</ele>
        <time>2022-01-16T10:24:24.504Z</time>
      </trkpt>
      <trkpt lat="47.32283" lon="6.13359">
        <ele>289.46417</ele>
        <time>2022-01-16T10:24:31.829Z</time>
      </trkpt>
      <trkpt lat="47.3229" lon="6.13355">
        <ele>289.46417</ele>
        <time>2022-01-16T10:24:39.117Z</time>
      </trkpt>
      <trkpt lat="47.32294" lon="6.1337">
        <ele>289.46417</ele>
        <time>2022-01-16T10:24:50.579Z</time>
      </trkpt>
      <trkpt lat="47.32302" lon="6.13399">
        <ele>289.46417</ele>
        <time>2022-01-16T10:25:12.090Z</time>
      </trkpt>
      <trkpt lat="47.32313" lon="6.13438">
        <ele>289.46417</ele>
        <time>2022-01-16T10:25:41.337Z</time>
      </trkpt>
      <trkpt lat="47.32316" lon="6.13447">
        <ele>289.46417</ele>
        <time>2022-01-16T10:25:48.440Z</time>
      </trkpt>
      <trkpt lat="47.32323" lon="6.13475">
        <ele>289.580774</ele>
        <time>2022-01-16T10:26:09.487Z</time>
      </trkpt>
      <trkpt lat="47.32332" lon="6.13508">
        <ele>289.813957</ele>
        <time>2022-01-16T10:26:34.296Z</time>
      </trkpt>
      <trkpt lat="47.32342" lon="6.13527">
        <ele>289.973922</ele>
        <time>2022-01-16T10:26:51.788Z</time>
      </trkpt>
      <trkpt lat="47.32348" lon="6.13537">
        <ele>290.062055</ele>
        <time>2022-01-16T10:27:01.230Z</time>
      </trkpt>
      <trkpt lat="47.32407" lon="6.1365">
        <ele>290.997891</ele>
        <time>2022-01-16T10:28:41.532Z</time>
      </trkpt>
      <trkpt lat="47.32422" lon="6.13678">
        <ele>291.197197</ele>
        <time>2022-01-16T10:29:06.377Z</time>
      </trkpt>
      <trkpt lat="47.3243" lon="6.13686">
        <ele>291.122325</ele>
        <time>2022-01-16T10:29:16.618Z</time>
      </trkpt>
      <trkpt lat="47.3243" lon="6.13686">
        <ele>291.122325</ele>
        <time>2022-01-16T10:29:16.861Z</time>
      </trkpt>
      <trkpt lat="47.32433" lon="6.13698">
        <ele>291.056878</ele>
        <time>2022-01-16T10:29:25.661Z</time>
      </trkpt>
      <trkpt lat="47.32443" lon="6.13715">
        <ele>290.946405</ele>
        <time>2022-01-16T10:29:40.687Z</time>
      </trkpt>
      <trkpt lat="47.32442" lon="6.13731">
        <ele>290.863761</ele>
        <time>2022-01-16T10:29:51.777Z</time>
      </trkpt>
      <trkpt lat="47.32452" lon="6.13807">
        <ele>290.473168</ele>
        <time>2022-01-16T10:30:44.855Z</time>
      </trkpt>
      <trkpt lat="47.32449" lon="6.13862">
        <ele>290.197919</ele>
        <time>2022-01-16T10:31:22.763Z</time>
      </trkpt>
      <trkpt lat="47.32442" lon="6.13894">
        <ele>290.024468</ele>
        <time>2022-01-16T10:31:46.803Z</time>
      </trkpt>
      <trkpt lat="47.32429" lon="6.1392">
        <ele>289.88621</ele>
        <time>2022-01-16T10:32:09.028Z</time>
      </trkpt>
      <trkpt lat="47.3241" lon="6.13958">
        <ele>290.367763</ele>
        <time>2022-01-16T10:32:43.775Z</time>
      </trkpt>
      <trkpt lat="47.32402" lon="6.13983">
        <ele>290.635779</ele>
        <time>2022-01-16T10:33:02.274Z</time>
      </trkpt>
      <trkpt lat="47.32395" lon="6.14031">
        <ele>291.132999</ele>
        <time>2022-01-16T10:33:36.645Z</time>
      </trkpt>
      <trkpt lat="47.32393" lon="6.14076">
        <ele>291.573308</ele>
        <time>2022-01-16T10:34:07.035Z</time>
      </trkpt>
      <trkpt lat="47.32391" lon="6.1411">
        <ele>291.919588</ele>
        <time>2022-01-16T10:34:32.028Z</time>
      </trkpt>
      <trkpt lat="47.32389" lon="6.14145">
        <ele>292.263883</ele>
        <time>2022-01-16T10:34:59.229Z</time>
      </trkpt>
      <trkpt lat="47.32385" lon="6.14166">
        <ele>292.480074</ele>
        <time>2022-01-16T10:35:16.673Z</time>
      </trkpt>
      <trkpt lat="47.32298" lon="6.14194">
        <ele>304.614042</ele>
        <time>2022-01-16T10:37:16.467Z</time>
      </trkpt>
      <trkpt lat="47.32011" lon="6.14312">
        <ele>352.406506</ele>
        <time>2022-01-16T10:46:41.425Z</time>
      </trkpt>
      <trkpt lat="47.32011" lon="6.14343">
        <ele>353.78059</ele>
        <time>2022-01-16T10:47:12.750Z</time>
      </trkpt>
      <trkpt lat="47.32001" lon="6.14382">
        <ele>355.628028</ele>
        <time>2022-01-16T10:47:50.780Z</time>
      </trkpt>
      <trkpt lat="47.32027" lon="6.14472">
        <ele>359.956233</ele>
        <time>2022-01-16T10:49:06.978Z</time>
      </trkpt>
      <trkpt lat="47.3204" lon="6.14531">
        <ele>362.259352</ele>
        <time>2022-01-16T10:49:50.795Z</time>
      </trkpt>
      <trkpt lat="47.32071" lon="6.14607">
        <ele>357.084868</ele>
        <time>2022-01-16T10:51:00.391Z</time>
      </trkpt>
      <trkpt lat="47.3208" lon="6.14646">
        <ele>354.731021</ele>
        <time>2022-01-16T10:51:33.530Z</time>
      </trkpt>
      <trkpt lat="47.32097" lon="6.14699">
        <ele>351.301312</ele>
        <time>2022-01-16T10:52:21.291Z</time>
      </trkpt>
      <trkpt lat="47.32158" lon="6.1484">
        <ele>341.075356</ele>
        <time>2022-01-16T10:54:40.309Z</time>
      </trkpt>
      <trkpt lat="47.32174" lon="6.14867">
        <ele>338.787739</ele>
        <time>2022-01-16T10:55:09.553Z</time>
      </trkpt>
      <trkpt lat="47.32184" lon="6.14897">
        <ele>336.723376</ele>
        <time>2022-01-16T10:55:36.574Z</time>
      </trkpt>
      <trkpt lat="47.32196" lon="6.14917">
        <ele>334.979904</ele>
        <time>2022-01-16T10:55:57.894Z</time>
      </trkpt>
      <trkpt lat="47.32211" lon="6.14943">
        <ele>332.817869</ele>
        <time>2022-01-16T10:56:25.163Z</time>
      </trkpt>
      <trkpt lat="47.32215" lon="6.14915">
        <ele>330.971335</ele>
        <time>2022-01-16T10:56:47.882Z</time>
      </trkpt>
      <trkpt lat="47.32224" lon="6.14844">
        <ele>330.580906</ele>
        <time>2022-01-16T10:57:42.108Z</time>
      </trkpt>
      <trkpt lat="47.32244" lon="6.1483">
        <ele>330.71515</ele>
        <time>2022-01-16T10:58:05.023Z</time>
      </trkpt>
      <trkpt lat="47.32247" lon="6.14829">
        <ele>330.733711</ele>
        <time>2022-01-16T10:58:09.538Z</time>
      </trkpt>
      <trkpt lat="47.3226" lon="6.14939">
        <ele>331.204704</ele>
        <time>2022-01-16T10:59:25.935Z</time>
      </trkpt>
      <trkpt lat="47.32213" lon="6.15029">
        <ele>337.208186</ele>
        <time>2022-01-16T11:01:12.684Z</time>
      </trkpt>
      <trkpt lat="47.32169" lon="6.15099">
        <ele>346.644021</ele>
        <time>2022-01-16T11:03:02.167Z</time>
      </trkpt>
      <trkpt lat="47.32147" lon="6.15104">
        <ele>349.91673</ele>
        <time>2022-01-16T11:03:45.916Z</time>
      </trkpt>
      <trkpt lat="47.32087" lon="6.15091">
        <ele>358.369612</ele>
        <time>2022-01-16T11:05:29.242Z</time>
      </trkpt>
      <trkpt lat="47.32074" lon="6.15092">
        <ele>359.662244</ele>
        <time>2022-01-16T11:05:54.465Z</time>
      </trkpt>
      <trkpt lat="47.32066" lon="6.151">
        <ele>360.569615</ele>
        <time>2022-01-16T11:06:07.611Z</time>
      </trkpt>
      <trkpt lat="47.32063" lon="6.15194">
        <ele>366.613455</ele>
        <time>2022-01-16T11:07:49.229Z</time>
      </trkpt>
      <trkpt lat="47.32053" lon="6.15261">
        <ele>370.957766</ele>
        <time>2022-01-16T11:08:44.842Z</time>
      </trkpt>
      <trkpt lat="47.32089" lon="6.1543">
        <ele>374.592849</ele>
        <time>2022-01-16T11:10:49.539Z</time>
      </trkpt>
      <trkpt lat="47.32074" lon="6.15547">
        <ele>374.509935</ele>
        <time>2022-01-16T11:12:13.791Z</time>
      </trkpt>
      <trkpt lat="47.32048" lon="6.1565">
        <ele>373.702701</ele>
        <time>2022-01-16T11:13:28.622Z</time>
      </trkpt>
      <trkpt lat="47.32031" lon="6.15669">
        <ele>373.390049</ele>
        <time>2022-01-16T11:13:51.525Z</time>
      </trkpt>
      <trkpt lat="47.32028" lon="6.15692">
        <ele>373.160239</ele>
        <time>2022-01-16T11:14:08.150Z</time>
      </trkpt>
      <trkpt lat="47.32014" lon="6.15715">
        <ele>372.865728</ele>
        <time>2022-01-16T11:14:31.679Z</time>
      </trkpt>
      <trkpt lat="47.32026" lon="6.1577">
        <ele>372.310442</ele>
        <time>2022-01-16T11:15:12.364Z</time>
      </trkpt>
      <trkpt lat="47.32013" lon="6.15885">
        <ele>365.519206</ele>
        <time>2022-01-16T11:16:42.005Z</time>
      </trkpt>
      <trkpt lat="47.31996" lon="6.15913">
        <ele>362.417627</ele>
        <time>2022-01-16T11:17:12.114Z</time>
      </trkpt>
      <trkpt lat="47.32044" lon="6.15982">
        <ele>354.354117</ele>
        <time>2022-01-16T11:18:37.144Z</time>
      </trkpt>
      <trkpt lat="47.32075" lon="6.16038">
        <ele>347.596039</ele>
        <time>2022-01-16T11:19:44.069Z</time>
      </trkpt>
      <trkpt lat="47.32085" lon="6.16134">
        <ele>335.608624</ele>
        <time>2022-01-16T11:21:24.461Z</time>
      </trkpt>
      <trkpt lat="47.32124" lon="6.16136">
        <ele>328.565453</ele>
        <time>2022-01-16T11:22:21.730Z</time>
      </trkpt>
      <trkpt lat="47.32381" lon="6.16107">
        <ele>291.031814</ele>
        <time>2022-01-16T11:27:51.670Z</time>
      </trkpt>
      <trkpt lat="47.32527" lon="6.1609">
        <ele>280.041858</ele>
        <time>2022-01-16T11:30:37.783Z</time>
      </trkpt>
      <trkpt lat="47.32553" lon="6.16153">
        <ele>277.87184</ele>
        <time>2022-01-16T11:31:31.185Z</time>
      </trkpt>
      <trkpt lat="47.32616" lon="6.16326">
        <ele>274.252716</ele>
        <time>2022-01-16T11:33:50.664Z</time>
      </trkpt>
      <trkpt lat="47.32642" lon="6.16362">
        <ele>273.633119</ele>
        <time>2022-01-16T11:34:27.780Z</time>
      </trkpt>
      <trkpt lat="47.32669" lon="6.16366">
        <ele>273.333081</ele>
        <time>2022-01-16T11:34:55.908Z</time>
      </trkpt>
      <trkpt lat="47.32722" lon="6.16326">
        <ele>272.677807</ele>
        <time>2022-01-16T11:35:57.255Z</time>
      </trkpt>
      <trkpt lat="47.3277" lon="6.16311">
        <ele>272.147767</ele>
        <time>2022-01-16T11:36:46.416Z</time>
      </trkpt>
      <trkpt lat="47.32786" lon="6.16313">
        <ele>271.96943</ele>
        <time>2022-01-16T11:37:02.865Z</time>
      </trkpt>
      <trkpt lat="47.32801" lon="6.16332">
        <ele>271.9185</ele>
        <time>2022-01-16T11:37:22.868Z</time>
      </trkpt>
      <trkpt lat="47.32811" lon="6.16363">
        <ele>271.943479</ele>
        <time>2022-01-16T11:37:46.174Z</time>
      </trkpt>
      <trkpt lat="47.32811" lon="6.16363">
        <ele>271.943479</ele>
        <time>2022-01-16T11:37:46.206Z</time>
      </trkpt>
      <trkpt lat="47.3281" lon="6.16377">
        <ele>271.953932</ele>
        <time>2022-01-16T11:37:55.952Z</time>
      </trkpt>
      <trkpt lat="47.32817" lon="6.16431">
        <ele>271.994057</ele>
        <time>2022-01-16T11:38:33.359Z</time>
      </trkpt>
      <trkpt lat="47.32844" lon="6.16512">
        <ele>272.059718</ele>
        <time>2022-01-16T11:39:35.294Z</time>
      </trkpt>
      <trkpt lat="47.32853" lon="6.16527">
        <ele>272.07414</ele>
        <time>2022-01-16T11:39:48.899Z</time>
      </trkpt>
      <trkpt lat="47.32917" lon="6.16625">
        <ele>272.246209</ele>
        <time>2022-01-16T11:41:22.128Z</time>
      </trkpt>
      <trkpt lat="47.32931" lon="6.16646">
        <ele>272.287927</ele>
        <time>2022-01-16T11:41:42.010Z</time>
      </trkpt>
      <trkpt lat="47.32937" lon="6.16666">
        <ele>272.319561</ele>
        <time>2022-01-16T11:41:57.137Z</time>
      </trkpt>
      <trkpt lat="47.32936" lon="6.16673">
        <ele>272.328894</ele>
        <time>2022-01-16T11:42:01.723Z</time>
      </trkpt>
      <trkpt lat="47.32936" lon="6.1668">
        <ele>272.339809</ele>
        <time>2022-01-16T11:42:07.074Z</time>
      </trkpt>
      <trkpt lat="47.32922" lon="6.16735">
        <ele>272.422808</ele>
        <time>2022-01-16T11:42:46.564Z</time>
      </trkpt>
      <trkpt lat="47.32923" lon="6.16757">
        <ele>272.454548</ele>
        <time>2022-01-16T11:43:01.673Z</time>
      </trkpt>
      <trkpt lat="47.32916" lon="6.16787">
        <ele>272.708381</ele>
        <time>2022-01-16T11:43:23.576Z</time>
      </trkpt>
      <trkpt lat="47.32909" lon="6.16846">
        <ele>273.530702</ele>
        <time>2022-01-16T11:44:05.749Z</time>
      </trkpt>
      <trkpt lat="47.32913" lon="6.16893">
        <ele>274.179514</ele>
        <time>2022-01-16T11:44:39.435Z</time>
      </trkpt>
      <trkpt lat="47.32916" lon="6.16913">
        <ele>274.457704</ele>
        <time>2022-01-16T11:44:53.570Z</time>
      </trkpt>
      <trkpt lat="47.32918" lon="6.16927">
        <ele>274.659411</ele>
        <time>2022-01-16T11:45:04.318Z</time>
      </trkpt>
      <trkpt lat="47.32975" lon="6.16963">
        <ele>275.914258</ele>
        <time>2022-01-16T11:46:12.114Z</time>
      </trkpt>
      <trkpt lat="47.32984" lon="6.16965">
        <ele>276.103406</ele>
        <time>2022-01-16T11:46:22.541Z</time>
      </trkpt>
      <trkpt lat="47.32997" lon="6.16968">
        <ele>276.812778</ele>
        <time>2022-01-16T11:46:37.739Z</time>
      </trkpt>
      <trkpt lat="47.3306" lon="6.16938">
        <ele>280.832348</ele>
        <time>2022-01-16T11:47:54.613Z</time>
      </trkpt>
      <trkpt lat="47.33066" lon="6.16942">
        <ele>281.25068</ele>
        <time>2022-01-16T11:48:04.001Z</time>
      </trkpt>
      <trkpt lat="47.33127" lon="6.16916">
        <ele>285.071767</ele>
        <time>2022-01-16T11:49:22.020Z</time>
      </trkpt>
      <trkpt lat="47.33136" lon="6.16914">
        <ele>285.639783</ele>
        <time>2022-01-16T11:49:34.779Z</time>
      </trkpt>
      <trkpt lat="47.33144" lon="6.16917">
        <ele>286.150685</ele>
        <time>2022-01-16T11:49:44.939Z</time>
      </trkpt>
      <trkpt lat="47.33176" lon="6.16951">
        <ele>288.812505</ele>
        <time>2022-01-16T11:50:33.367Z</time>
      </trkpt>
      <trkpt lat="47.33183" lon="6.16959">
        <ele>289.448988</ele>
        <time>2022-01-16T11:50:44.017Z</time>
      </trkpt>
      <trkpt lat="47.33225" lon="6.16988">
        <ele>292.794744</ele>
        <time>2022-01-16T11:51:43.826Z</time>
      </trkpt>
      <trkpt lat="47.33244" lon="6.16986">
        <ele>294.175225</ele>
        <time>2022-01-16T11:52:07.771Z</time>
      </trkpt>
      <trkpt lat="47.33255" lon="6.16972">
        <ele>295.244031</ele>
        <time>2022-01-16T11:52:26.061Z</time>
      </trkpt>
      <trkpt lat="47.33274" lon="6.16966">
        <ele>296.646299</ele>
        <time>2022-01-16T11:52:51.004Z</time>
      </trkpt>
      <trkpt lat="47.33291" lon="6.17002">
        <ele>298.777569</ele>
        <time>2022-01-16T11:53:27.531Z</time>
      </trkpt>
      <trkpt lat="47.33309" lon="6.17019">
        <ele>300.125312</ele>
        <time>2022-01-16T11:53:52.459Z</time>
      </trkpt>
      <trkpt lat="47.33314" lon="6.17013">
        <ele>300.307289</ele>
        <time>2022-01-16T11:54:02.368Z</time>
      </trkpt>
      <trkpt lat="47.33337" lon="6.17062">
        <ele>301.366661</ele>
        <time>2022-01-16T11:54:49.368Z</time>
      </trkpt>
      <trkpt lat="47.33341" lon="6.17072">
        <ele>301.580315</ele>
        <time>2022-01-16T11:54:58.167Z</time>
      </trkpt>
      <trkpt lat="47.3338" lon="6.17131">
        <ele>303.050117</ele>
        <time>2022-01-16T11:55:59.067Z</time>
      </trkpt>
      <trkpt lat="47.33445" lon="6.17188">
        <ele>304.438003</ele>
        <time>2022-01-16T11:57:16.938Z</time>
      </trkpt>
      <trkpt lat="47.33552" lon="6.17239">
        <ele>300.772737</ele>
        <time>2022-01-16T11:59:15.846Z</time>
      </trkpt>
      <trkpt lat="47.33622" lon="6.17243">
        <ele>297.981585</ele>
        <time>2022-01-16T12:00:33.766Z</time>
      </trkpt>
      <trkpt lat="47.33639" lon="6.17238">
        <ele>296.79393</ele>
        <time>2022-01-16T12:00:53.335Z</time>
      </trkpt>
      <trkpt lat="47.33703" lon="6.17241">
        <ele>292.34275</ele>
        <time>2022-01-16T12:02:07.426Z</time>
      </trkpt>
      <trkpt lat="47.33726" lon="6.17237">
        <ele>290.769282</ele>
        <time>2022-01-16T12:02:33.945Z</time>
      </trkpt>
      <trkpt lat="47.33737" lon="6.17242">
        <ele>289.95169</ele>
        <time>2022-01-16T12:02:47.165Z</time>
      </trkpt>
      <trkpt lat="47.33738" lon="6.17294">
        <ele>287.51653</ele>
        <time>2022-01-16T12:03:27.430Z</time>
      </trkpt>
      <trkpt lat="47.33737" lon="6.17332">
        <ele>285.99008</ele>
        <time>2022-01-16T12:03:56.877Z</time>
      </trkpt>
      <trkpt lat="47.33735" lon="6.17385">
        <ele>284.387836</ele>
        <time>2022-01-16T12:04:37.540Z</time>
      </trkpt>
      <trkpt lat="47.33729" lon="6.17413">
        <ele>283.507738</ele>
        <time>2022-01-16T12:04:59.292Z</time>
      </trkpt>
      <trkpt lat="47.33716" lon="6.17443">
        <ele>282.429511</ele>
        <time>2022-01-16T12:05:26.083Z</time>
      </trkpt>
      <trkpt lat="47.33626" lon="6.17524">
        <ele>278.336269</ele>
        <time>2022-01-16T12:07:19.099Z</time>
      </trkpt>
      <trkpt lat="47.33582" lon="6.17554">
        <ele>278.03838</ele>
        <time>2022-01-16T12:08:07.470Z</time>
      </trkpt>
      <trkpt lat="47.33578" lon="6.17562">
        <ele>277.991541</ele>
        <time>2022-01-16T12:08:15.076Z</time>
      </trkpt>
      <trkpt lat="47.33612" lon="6.17547">
        <ele>277.767826</ele>
        <time>2022-01-16T12:08:51.172Z</time>
      </trkpt>
      <trkpt lat="47.33717" lon="6.17469">
        <ele>277.666463</ele>
        <time>2022-01-16T12:10:49.964Z</time>
      </trkpt>
      <trkpt lat="47.33745" lon="6.17457">
        <ele>277.899669</ele>
        <time>2022-01-16T12:11:20.402Z</time>
      </trkpt>
      <trkpt lat="47.33779" lon="6.17447">
        <ele>278.173951</ele>
        <time>2022-01-16T12:11:56.336Z</time>
      </trkpt>
      <trkpt lat="47.33792" lon="6.17442">
        <ele>278.279223</ele>
        <time>2022-01-16T12:12:10.081Z</time>
      </trkpt>
      <trkpt lat="47.33801" lon="6.17438">
        <ele>278.351445</ele>
        <time>2022-01-16T12:12:19.530Z</time>
      </trkpt>
      <trkpt lat="47.33818" lon="6.17426">
        <ele>278.496677</ele>
        <time>2022-01-16T12:12:38.871Z</time>
      </trkpt>
      <trkpt lat="47.33839" lon="6.17401">
        <ele>278.713391</ele>
        <time>2022-01-16T12:13:07.829Z</time>
      </trkpt>
      <trkpt lat="47.33861" lon="6.17357">
        <ele>278.823828</ele>
        <time>2022-01-16T12:13:46.389Z</time>
      </trkpt>
      <trkpt lat="47.33884" lon="6.17247">
        <ele>279.028729</ele>
        <time>2022-01-16T12:15:05.900Z</time>
      </trkpt>
      <trkpt lat="47.33893" lon="6.1722">
        <ele>279.082855</ele>
        <time>2022-01-16T12:15:26.591Z</time>
      </trkpt>
      <trkpt lat="47.33905" lon="6.17191">
        <ele>279.143787</ele>
        <time>2022-01-16T12:15:50.351Z</time>
      </trkpt>
      <trkpt lat="47.33913" lon="6.17177">
        <ele>279.176239</ele>
        <time>2022-01-16T12:16:02.764Z</time>
      </trkpt>
      <trkpt lat="47.3392" lon="6.17165">
        <ele>279.205108</ele>
        <time>2022-01-16T12:16:14.239Z</time>
      </trkpt>
      <trkpt lat="47.33955" lon="6.17128">
        <ele>279.15921</ele>
        <time>2022-01-16T12:16:57.810Z</time>
      </trkpt>
      <trkpt lat="47.33963" lon="6.17119">
        <ele>279.147584</ele>
        <time>2022-01-16T12:17:08.366Z</time>
      </trkpt>
      <trkpt lat="47.33999" lon="6.17083">
        <ele>279.098025</ele>
        <time>2022-01-16T12:17:52.320Z</time>
      </trkpt>
      <trkpt lat="47.34014" lon="6.1707">
        <ele>279.078517</ele>
        <time>2022-01-16T12:18:09.923Z</time>
      </trkpt>
      <trkpt lat="47.34043" lon="6.17045">
        <ele>279.040746</ele>
        <time>2022-01-16T12:18:43.580Z</time>
      </trkpt>
      <trkpt lat="47.3407" lon="6.17034">
        <ele>279.009716</ele>
        <time>2022-01-16T12:19:11.704Z</time>
      </trkpt>
      <trkpt lat="47.34084" lon="6.17031">
        <ele>279.198212</ele>
        <time>2022-01-16T12:19:25.767Z</time>
      </trkpt>
      <trkpt lat="47.34089" lon="6.1703">
        <ele>279.319792</ele>
        <time>2022-01-16T12:19:31.315Z</time>
      </trkpt>
      <trkpt lat="47.34093" lon="6.17029">
        <ele>279.402989</ele>
        <time>2022-01-16T12:19:35.427Z</time>
      </trkpt>
      <trkpt lat="47.34089" lon="6.1703">
        <ele>279.486187</ele>
        <time>2022-01-16T12:19:39.388Z</time>
      </trkpt>
      <trkpt lat="47.34096" lon="6.17028">
        <ele>279.649343</ele>
        <time>2022-01-16T12:19:47.711Z</time>
      </trkpt>
      <trkpt lat="47.34103" lon="6.17015">
        <ele>279.879963</ele>
        <time>2022-01-16T12:19:58.174Z</time>
      </trkpt>
      <trkpt lat="47.3411" lon="6.16971">
        <ele>280.568235</ele>
        <time>2022-01-16T12:20:31.227Z</time>
      </trkpt>
      <trkpt lat="47.34121" lon="6.16886">
        <ele>281.871766</ele>
        <time>2022-01-16T12:21:35.334Z</time>
      </trkpt>
      <trkpt lat="47.34124" lon="6.1686">
        <ele>282.271143</ele>
        <time>2022-01-16T12:21:55.893Z</time>
      </trkpt>
      <trkpt lat="47.34104" lon="6.16795">
        <ele>283.440065</ele>
        <time>2022-01-16T12:22:50.175Z</time>
      </trkpt>
      <trkpt lat="47.34095" lon="6.16701">
        <ele>285.223763</ele>
        <time>2022-01-16T12:24:00.787Z</time>
      </trkpt>
      <trkpt lat="47.34059" lon="6.1663">
        <ele>286.897686</ele>
        <time>2022-01-16T12:25:06.852Z</time>
      </trkpt>
      <trkpt lat="47.34052" lon="6.16585">
        <ele>287.778708</ele>
        <time>2022-01-16T12:25:41.416Z</time>
      </trkpt>
      <trkpt lat="47.3401" lon="6.16527">
        <ele>288.94492</ele>
        <time>2022-01-16T12:26:43.271Z</time>
      </trkpt>
      <trkpt lat="47.33993" lon="6.16491">
        <ele>289.50961</ele>
        <time>2022-01-16T12:27:14.943Z</time>
      </trkpt>
      <trkpt lat="47.33971" lon="6.16418">
        <ele>290.547286</ele>
        <time>2022-01-16T12:28:12.721Z</time>
      </trkpt>
      <trkpt lat="47.33968" lon="6.16401">
        <ele>290.772381</ele>
        <time>2022-01-16T12:28:25.131Z</time>
      </trkpt>
      <trkpt lat="47.33971" lon="6.16376">
        <ele>291.106969</ele>
        <time>2022-01-16T12:28:43.617Z</time>
      </trkpt>
      <trkpt lat="47.33961" lon="6.1635">
        <ele>291.470603</ele>
        <time>2022-01-16T12:29:04.502Z</time>
      </trkpt>
      <trkpt lat="47.33959" lon="6.16333">
        <ele>291.589477</ele>
        <time>2022-01-16T12:29:16.837Z</time>
      </trkpt>
      <trkpt lat="47.33962" lon="6.16299">
        <ele>291.824024</ele>
        <time>2022-01-16T12:29:41.161Z</time>
      </trkpt>
      <trkpt lat="47.33941" lon="6.16253">
        <ele>292.209097</ele>
        <time>2022-01-16T12:30:21.360Z</time>
      </trkpt>
      <trkpt lat="47.33911" lon="6.16157">
        <ele>292.937847</ele>
        <time>2022-01-16T12:31:36.062Z</time>
      </trkpt>
      <trkpt lat="47.33903" lon="6.16132">
        <ele>293.127227</ele>
        <time>2022-01-16T12:31:54.992Z</time>
      </trkpt>
      <trkpt lat="47.33907" lon="6.16071">
        <ele>292.911433</ele>
        <time>2022-01-16T12:32:37.139Z</time>
      </trkpt>
      <trkpt lat="47.3393" lon="6.16067">
        <ele>292.592908</ele>
        <time>2022-01-16T12:33:00.504Z</time>
      </trkpt>
      <trkpt lat="47.3394" lon="6.16056">
        <ele>292.416943</ele>
        <time>2022-01-16T12:33:13.316Z</time>
      </trkpt>
      <trkpt lat="47.33964" lon="6.16034">
        <ele>292.021534</ele>
        <time>2022-01-16T12:33:42.545Z</time>
      </trkpt>
      <trkpt lat="47.33987" lon="6.16085">
        <ele>291.439885</ele>
        <time>2022-01-16T12:34:25.918Z</time>
      </trkpt>
      <trkpt lat="47.33999" lon="6.16158">
        <ele>290.807929</ele>
        <time>2022-01-16T12:35:18.997Z</time>
      </trkpt>
      <trkpt lat="47.34004" lon="6.16157">
        <ele>290.887861</ele>
        <time>2022-01-16T12:35:24.713Z</time>
      </trkpt>
      <trkpt lat="47.34006" lon="6.16112">
        <ele>291.378232</ele>
        <time>2022-01-16T12:35:56.121Z</time>
      </trkpt>
      <trkpt lat="47.34025" lon="6.16111">
        <ele>291.673337</ele>
        <time>2022-01-16T12:36:15.450Z</time>
      </trkpt>
      <trkpt lat="47.34054" lon="6.16106">
        <ele>292.150246</ele>
        <time>2022-01-16T12:36:45.546Z</time>
      </trkpt>
      <trkpt lat="47.34079" lon="6.16096">
        <ele>292.555404</ele>
        <time>2022-01-16T12:37:13.435Z</time>
      </trkpt>
      <trkpt lat="47.34082" lon="6.1609">
        <ele>292.647821</ele>
        <time>2022-01-16T12:37:19.455Z</time>
      </trkpt>
      <trkpt lat="47.34084" lon="6.16052">
        <ele>293.052581</ele>
        <time>2022-01-16T12:37:47.930Z</time>
      </trkpt>
      <trkpt lat="47.34086" lon="6.16046">
        <ele>293.132079</ele>
        <time>2022-01-16T12:37:54.108Z</time>
      </trkpt>
      <trkpt lat="47.34091" lon="6.16036">
        <ele>293.259714</ele>
        <time>2022-01-16T12:38:02.370Z</time>
      </trkpt>
      <trkpt lat="47.34093" lon="6.16035">
        <ele>293.293758</ele>
        <time>2022-01-16T12:38:04.752Z</time>
      </trkpt>
      <trkpt lat="47.34107" lon="6.16028">
        <ele>293.539979</ele>
        <time>2022-01-16T12:38:22.375Z</time>
      </trkpt>
      <trkpt lat="47.34109" lon="6.16013">
        <ele>293.984506</ele>
        <time>2022-01-16T12:38:36.335Z</time>
      </trkpt>
      <trkpt lat="47.3418" lon="6.15892">
        <ele>302.515827</ele>
        <time>2022-01-16T12:40:53.516Z</time>
      </trkpt>
      <trkpt lat="47.34202" lon="6.15823">
        <ele>306.600058</ele>
        <time>2022-01-16T12:42:02.329Z</time>
      </trkpt>
      <trkpt lat="47.34217" lon="6.1572">
        <ele>311.424819</ele>
        <time>2022-01-16T12:43:34.181Z</time>
      </trkpt>
      <trkpt lat="47.34228" lon="6.15515">
        <ele>319.743014</ele>
        <time>2022-01-16T12:46:21.384Z</time>
      </trkpt>
      <trkpt lat="47.34229" lon="6.15386">
        <ele>321.587448</ele>
        <time>2022-01-16T12:47:56.702Z</time>
      </trkpt>
      <trkpt lat="47.34236" lon="6.15299">
        <ele>322.831722</ele>
        <time>2022-01-16T12:48:57.580Z</time>
      </trkpt>
      <trkpt lat="47.34255" lon="6.15224">
        <ele>322.693989</ele>
        <time>2022-01-16T12:49:52.518Z</time>
      </trkpt>
      <trkpt lat="47.34321" lon="6.15049">
        <ele>320.770687</ele>
        <time>2022-01-16T12:52:13.693Z</time>
      </trkpt>
      <trkpt lat="47.34323" lon="6.15024">
        <ele>320.546517</ele>
        <time>2022-01-16T12:52:31.513Z</time>
      </trkpt>
      <trkpt lat="47.34335" lon="6.14946">
        <ele>319.870817</ele>
        <time>2022-01-16T12:53:28.249Z</time>
      </trkpt>
      <trkpt lat="47.34343" lon="6.14862">
        <ele>319.153734</ele>
        <time>2022-01-16T12:54:27.731Z</time>
      </trkpt>
      <trkpt lat="47.34367" lon="6.14749">
        <ele>318.838541</ele>
        <time>2022-01-16T12:55:48.445Z</time>
      </trkpt>
      <trkpt lat="47.34365" lon="6.14717">
        <ele>319.265545</ele>
        <time>2022-01-16T12:56:11.531Z</time>
      </trkpt>
      <trkpt lat="47.34343" lon="6.14679">
        <ele>319.915986</ele>
        <time>2022-01-16T12:56:47.395Z</time>
      </trkpt>
      <trkpt lat="47.34295" lon="6.14661">
        <ele>320.858871</ele>
        <time>2022-01-16T12:57:40.471Z</time>
      </trkpt>
      <trkpt lat="47.34247" lon="6.14639">
        <ele>321.844585</ele>
        <time>2022-01-16T12:58:36.895Z</time>
      </trkpt>
      <trkpt lat="47.34166" lon="6.14606">
        <ele>324.246359</ele>
        <time>2022-01-16T13:00:10.321Z</time>
      </trkpt>
      <trkpt lat="47.34147" lon="6.14595">
        <ele>324.849414</ele>
        <time>2022-01-16T13:00:33.543Z</time>
      </trkpt>
      <trkpt lat="47.34072" lon="6.14496">
        <ele>327.344174</ele>
        <time>2022-01-16T13:02:23.287Z</time>
      </trkpt>
      <trkpt lat="47.34035" lon="6.14413">
        <ele>328.017879</ele>
        <time>2022-01-16T13:03:34.839Z</time>
      </trkpt>
      <trkpt lat="47.33956" lon="6.14372">
        <ele>328.851408</ele>
        <time>2022-01-16T13:04:59.681Z</time>
      </trkpt>
      <trkpt lat="47.33928" lon="6.14351">
        <ele>328.579696</ele>
        <time>2022-01-16T13:05:31.330Z</time>
      </trkpt>
      <trkpt lat="47.33777" lon="6.14163">
        <ele>326.226008</ele>
        <time>2022-01-16T13:08:56.805Z</time>
      </trkpt>
      <trkpt lat="47.33701" lon="6.14094">
        <ele>325.910597</ele>
        <time>2022-01-16T13:10:26.541Z</time>
      </trkpt>
      <trkpt lat="47.33651" lon="6.14072">
        <ele>325.778298</ele>
        <time>2022-01-16T13:11:19.540Z</time>
      </trkpt>
      <trkpt lat="47.33644" lon="6.14063">
        <ele>325.879703</ele>
        <time>2022-01-16T13:11:29.354Z</time>
      </trkpt>
      <trkpt lat="47.33639" lon="6.14041">
        <ele>326.043472</ele>
        <time>2022-01-16T13:11:46.304Z</time>
      </trkpt>
      <trkpt lat="47.33625" lon="6.14006">
        <ele>326.321028</ele>
        <time>2022-01-16T13:12:13.822Z</time>
      </trkpt>
      <trkpt lat="47.33547" lon="6.13889">
        <ele>327.472602</ele>
        <time>2022-01-16T13:14:10.537Z</time>
      </trkpt>
      <trkpt lat="47.33515" lon="6.13829">
        <ele>327.773007</ele>
        <time>2022-01-16T13:15:04.084Z</time>
      </trkpt>
      <trkpt lat="47.33506" lon="6.13819">
        <ele>327.822269</ele>
        <time>2022-01-16T13:15:15.839Z</time>
      </trkpt>
      <trkpt lat="47.33492" lon="6.13813">
        <ele>327.885398</ele>
        <time>2022-01-16T13:15:30.451Z</time>
      </trkpt>
      <trkpt lat="47.33469" lon="6.13804">
        <ele>327.988934</ele>
        <time>2022-01-16T13:15:55.105Z</time>
      </trkpt>
      <trkpt lat="47.33451" lon="6.13787">
        <ele>328.080253</ele>
        <time>2022-01-16T13:16:16.215Z</time>
      </trkpt>
      <trkpt lat="47.33426" lon="6.13738">
        <ele>328.262466</ele>
        <time>2022-01-16T13:16:58.735Z</time>
      </trkpt>
      <trkpt lat="47.33408" lon="6.13711">
        <ele>328.371628</ele>
        <time>2022-01-16T13:17:23.881Z</time>
      </trkpt>
      <trkpt lat="47.33395" lon="6.13689">
        <ele>328.118125</ele>
        <time>2022-01-16T13:17:43.934Z</time>
      </trkpt>
      <trkpt lat="47.33385" lon="6.13685">
        <ele>327.963009</ele>
        <time>2022-01-16T13:17:54.356Z</time>
      </trkpt>
      <trkpt lat="47.33351" lon="6.13662">
        <ele>327.385259</ele>
        <time>2022-01-16T13:18:32.794Z</time>
      </trkpt>
      <trkpt lat="47.33335" lon="6.13644">
        <ele>327.08487</ele>
        <time>2022-01-16T13:18:52.918Z</time>
      </trkpt>
      <trkpt lat="47.33291" lon="6.13563">
        <ele>326.012845</ele>
        <time>2022-01-16T13:20:05.966Z</time>
      </trkpt>
      <trkpt lat="47.33268" lon="6.1354">
        <ele>325.500638</ele>
        <time>2022-01-16T13:20:34.818Z</time>
      </trkpt>
      <trkpt lat="47.33231" lon="6.1353">
        <ele>323.667132</ele>
        <time>2022-01-16T13:21:16.152Z</time>
      </trkpt>
      <trkpt lat="47.33118" lon="6.13585">
        <ele>317.971824</ele>
        <time>2022-01-16T13:23:27.073Z</time>
      </trkpt>
      <trkpt lat="47.33102" lon="6.13586">
        <ele>317.16297</ele>
        <time>2022-01-16T13:23:46.184Z</time>
      </trkpt>
      <trkpt lat="47.33096" lon="6.13592">
        <ele>316.805979</ele>
        <time>2022-01-16T13:23:53.980Z</time>
      </trkpt>
      <trkpt lat="47.33082" lon="6.13598">
        <ele>316.021575</ele>
        <time>2022-01-16T13:24:10.159Z</time>
      </trkpt>
      <trkpt lat="47.33042" lon="6.13611">
        <ele>313.810667</ele>
        <time>2022-01-16T13:24:56.025Z</time>
      </trkpt>
      <trkpt lat="47.33008" lon="6.13624">
        <ele>311.89803</ele>
        <time>2022-01-16T13:25:35.497Z</time>
      </trkpt>
      <trkpt lat="47.32993" lon="6.13629">
        <ele>311.073737</ele>
        <time>2022-01-16T13:25:52.685Z</time>
      </trkpt>
      <trkpt lat="47.32966" lon="6.13634">
        <ele>309.590644</ele>
        <time>2022-01-16T13:26:23.348Z</time>
      </trkpt>
      <trkpt lat="47.32941" lon="6.13634">
        <ele>308.252811</ele>
        <time>2022-01-16T13:26:50.722Z</time>
      </trkpt>
      <trkpt lat="47.32874" lon="6.13615">
        <ele>305.582557</ele>
        <time>2022-01-16T13:28:04.290Z</time>
      </trkpt>
      <trkpt lat="47.3282" lon="6.13595">
        <ele>303.654008</ele>
        <time>2022-01-16T13:29:04.191Z</time>
      </trkpt>
      <trkpt lat="47.32792" lon="6.13588">
        <ele>302.674092</ele>
        <time>2022-01-16T13:29:34.398Z</time>
      </trkpt>
      <trkpt lat="47.32792" lon="6.13581">
        <ele>302.501868</ele>
        <time>2022-01-16T13:29:39.784Z</time>
      </trkpt>
      <trkpt lat="47.3279" lon="6.13572">
        <ele>302.299092</ele>
        <time>2022-01-16T13:29:45.997Z</time>
      </trkpt>
      <trkpt lat="47.32731" lon="6.13499">
        <ele>300.207908</ele>
        <time>2022-01-16T13:31:07.482Z</time>
      </trkpt>
      <trkpt lat="47.3271" lon="6.13485">
        <ele>299.705366</ele>
        <time>2022-01-16T13:31:32.165Z</time>
      </trkpt>
      <trkpt lat="47.3269" lon="6.13449">
        <ele>299.037915</ele>
        <time>2022-01-16T13:32:04.975Z</time>
      </trkpt>
      <trkpt lat="47.32616" lon="6.13485">
        <ele>297.362285</ele>
        <time>2022-01-16T13:33:26.607Z</time>
      </trkpt>
      <trkpt lat="47.32612" lon="6.13482">
        <ele>297.278752</ele>
        <time>2022-01-16T13:33:30.985Z</time>
      </trkpt>
      <trkpt lat="47.32611" lon="6.13485">
        <ele>297.249303</ele>
        <time>2022-01-16T13:33:33.322Z</time>
      </trkpt>
      <trkpt lat="47.32604" lon="6.13488">
        <ele>297.166847</ele>
        <time>2022-01-16T13:33:40.135Z</time>
      </trkpt>
      <trkpt lat="47.32602" lon="6.13486">
        <ele>297.137713</ele>
        <time>2022-01-16T13:33:42.428Z</time>
      </trkpt>
      <trkpt lat="47.32601" lon="6.13484">
        <ele>297.109222</ele>
        <time>2022-01-16T13:33:44.726Z</time>
      </trkpt>
      <trkpt lat="47.326" lon="6.13481">
        <ele>297.080678</ele>
        <time>2022-01-16T13:33:47.035Z</time>
      </trkpt>
      <trkpt lat="47.32508" lon="6.13525">
        <ele>295.878049</ele>
        <time>2022-01-16T13:35:26.034Z</time>
      </trkpt>
      <trkpt lat="47.32504" lon="6.13527">
        <ele>295.82727</ele>
        <time>2022-01-16T13:35:30.272Z</time>
      </trkpt>
      <trkpt lat="47.32503" lon="6.13513">
        <ele>295.704471</ele>
        <time>2022-01-16T13:35:40.195Z</time>
      </trkpt>
      <trkpt lat="47.32501" lon="6.13488">
        <ele>295.493447</ele>
        <time>2022-01-16T13:35:57.570Z</time>
      </trkpt>
      <trkpt lat="47.32496" lon="6.13472">
        <ele>295.345092</ele>
        <time>2022-01-16T13:36:09.689Z</time>
      </trkpt>
      <trkpt lat="47.32494" lon="6.13468">
        <ele>295.305037</ele>
        <time>2022-01-16T13:36:12.976Z</time>
      </trkpt>
      <trkpt lat="47.32459" lon="6.13407">
        <ele>294.49396</ele>
        <time>2022-01-16T13:37:07.981Z</time>
      </trkpt>
      <trkpt lat="47.32453" lon="6.13396">
        <ele>294.32807</ele>
        <time>2022-01-16T13:37:18.211Z</time>
      </trkpt>
      <trkpt lat="47.32445" lon="6.13381">
        <ele>294.111152</ele>
        <time>2022-01-16T13:37:31.441Z</time>
      </trkpt>
      <trkpt lat="47.32439" lon="6.13374">
        <ele>293.979769</ele>
        <time>2022-01-16T13:37:39.507Z</time>
      </trkpt>
      <trkpt lat="47.32417" lon="6.13356">
        <ele>293.556592</ele>
        <time>2022-01-16T13:38:05.818Z</time>
      </trkpt>
      <trkpt lat="47.32409" lon="6.1335">
        <ele>293.409861</ele>
        <time>2022-01-16T13:38:14.754Z</time>
      </trkpt>
      <trkpt lat="47.32396" lon="6.13355">
        <ele>293.185428</ele>
        <time>2022-01-16T13:38:28.744Z</time>
      </trkpt>
      <trkpt lat="47.32371" lon="6.13393">
        <ele>292.586363</ele>
        <time>2022-01-16T13:39:06.160Z</time>
      </trkpt>
      <trkpt lat="47.3237" lon="6.134">
        <ele>292.501881</ele>
        <time>2022-01-16T13:39:11.578Z</time>
      </trkpt>
      <trkpt lat="47.32369" lon="6.13407">
        <ele>292.426128</ele>
        <time>2022-01-16T13:39:16.594Z</time>
      </trkpt>
      <trkpt lat="47.32357" lon="6.13392">
        <ele>292.173103</ele>
        <time>2022-01-16T13:39:32.030Z</time>
      </trkpt>
      <trkpt lat="47.32356" lon="6.13389">
        <ele>292.137386</ele>
        <time>2022-01-16T13:39:34.330Z</time>
      </trkpt>
      <trkpt lat="47.32351" lon="6.13377">
        <ele>292.025271</ele>
        <time>2022-01-16T13:39:44.057Z</time>
      </trkpt>
      <trkpt lat="47.32335" lon="6.13336">
        <ele>292.025271</ele>
        <time>2022-01-16T13:40:18.291Z</time>
      </trkpt>
      <trkpt lat="47.32323" lon="6.13338">
        <ele>292.025271</ele>
        <time>2022-01-16T13:40:31.119Z</time>
      </trkpt>
      <trkpt lat="47.32295" lon="6.13353">
        <ele>292.025271</ele>
        <time>2022-01-16T13:41:02.049Z</time>
      </trkpt>
      <trkpt lat="47.3229" lon="6.13355">
        <ele>292.025271</ele>
        <time>2022-01-16T13:41:07.532Z</time>
      </trkpt>
      <trkpt lat="47.32283" lon="6.13359">
        <ele>292.025271</ele>
        <time>2022-01-16T13:41:14.888Z</time>
      </trkpt>
      <trkpt lat="47.32277" lon="6.13363">
        <ele>292.025271</ele>
        <time>2022-01-16T13:41:22.243Z</time>
      </trkpt>
    </trkseg>
  </trk>
</gpx>